Time;durP1;ratioP1;P1;durP2;ratioP2;P2;SDS_P1;SDS_P2;PMS_P1;PMS_P2;Temp;Humidity;BMP_temperature;BMP_pressure;BME280_temperature;BME280_humidity;BME280_pressure;Samples;Min_cycle;Max_cycle;Signal;HPM_P1;HPM_P2
2022/09/19 08:01:38;;;;;;;10.93;4.90;;;;;;;11.59;93.14;101855.28;5310441;27;20178;-71
2022/09/19 08:04:09;;;;;;;13.02;3.10;;;;;;;11.62;93.11;101865.84;5301526;28;20429;-70
2022/09/19 08:06:40;;;;;;;10.65;4.00;;;;;;;11.62;92.18;101858.34;5300503;28;20052;-72
2022/09/19 08:09:12;;;;;;;13.57;3.50;;;;;;;11.69;91.74;101867.25;5300794;28;20103;-71
2022/09/19 08:11:43;;;;;;;12.30;3.10;;;;;;;11.70;91.52;101871.69;5300714;28;20024;-72
2022/09/19 08:14:15;;;;;;;11.52;4.00;;;;;;;11.77;91.94;101867.84;5286068;28;20020;-72
2022/09/19 08:16:46;;;;;;;15.00;4.03;;;;;;;11.83;92.48;101867.56;5297255;28;20024;-71
2022/09/19 08:19:17;;;;;;;11.25;3.20;;;;;;;11.89;92.91;101872.09;5300442;28;20028;-71
2022/09/19 08:21:49;;;;;;;11.25;2.85;;;;;;;11.96;92.80;101882.94;5300691;28;20029;-72
2022/09/19 08:24:20;;;;;;;10.55;3.03;;;;;;;11.99;92.69;101889.88;5295821;28;20547;-71
2022/09/19 08:26:51;;;;;;;13.65;3.33;;;;;;;12.09;92.39;101882.44;5299213;28;20047;-72
2022/09/19 08:29:23;;;;;;;8.65;2.63;;;;;;;12.15;91.58;101877.72;5298467;28;20054;-70
2022/09/19 08:31:54;;;;;;;13.77;3.85;;;;;;;12.22;89.39;101882.97;5300761;28;20095;-69
2022/09/19 08:34:28;;;;;;;9.00;3.00;;;;;;;12.30;89.81;101891.63;5299949;28;20024;-71
2022/09/19 08:37:00;;;;;;;11.60;2.92;;;;;;;12.39;89.16;101880.78;5300554;28;20117;-72
2022/09/19 08:39:32;;;;;;;10.32;2.47;;;;;;;12.51;88.73;101886.91;5300069;28;20032;-71
2022/09/19 08:42:18;;;;;;;10.93;2.35;;;;;;;12.56;87.74;101892.50;5297851;28;20017;-71
2022/09/19 08:45:02;;;;;;;5.50;2.47;;;;;;;12.72;87.39;101889.72;5300385;28;20582;-72
2022/09/19 08:47:36;;;;;;;7.85;2.67;;;;;;;12.88;88.06;101898.88;5296729;28;20020;-72
2022/09/19 08:50:17;;;;;;;10.07;3.05;;;;;;;12.97;86.34;101897.22;5299369;28;20026;-70
2022/09/19 08:52:53;;;;;;;11.80;4.03;;;;;;;12.94;84.71;101892.22;5288782;28;20048;-73
2022/09/19 08:55:27;;;;;;;8.88;2.50;;;;;;;12.95;84.31;101889.13;5288783;28;20166;-71
2022/09/19 08:58:03;;;;;;;11.82;2.95;;;;;;;12.97;84.71;101898.03;5298560;28;20027;-72
2022/09/19 09:00:39;;;;;;;;;;;;;;;13.05;86.08;101889.09;5299588;28;20507;-70
2022/09/19 09:03:16;;;;;;;;;;;;;;;13.07;85.67;101893.59;5299966;28;19917;-71
2022/09/19 09:06:09;;;;;;;10.98;2.22;;;;;;;13.11;81.56;101886.31;5279067;28;19966;-73
2022/09/19 09:08:58;;;;;;;6.78;2.15;;;;;;;13.15;82.53;101891.03;5277998;28;20063;-72
2022/09/19 09:11:39;;;;;;;7.93;2.65;;;;;;;13.22;83.25;101890.75;5287327;28;20029;-71
2022/09/19 09:14:46;;;;;;;10.38;2.45;;;;;;;13.41;82.01;101891.84;5288410;28;20029;-71
2022/09/19 09:17:36;;;;;;;11.30;3.35;;;;;;;13.64;82.07;101889.53;5283230;28;20434;-71
2022/09/19 09:20:39;;;;;;;12.52;3.80;;;;;;;13.80;81.36;101887.50;5285217;28;20115;-72
2022/09/19 09:23:21;;;;;;;6.65;2.65;;;;;;;13.96;79.86;101889.13;5285693;28;20023;-71
2022/09/19 09:26:06;;;;;;;19.33;4.93;;;;;;;14.07;79.49;101889.88;5285669;28;20017;-72
2022/09/19 09:28:45;;;;;;;13.32;3.67;;;;;;;14.25;80.03;101893.97;5286133;28;20036;-71
2022/09/19 09:31:29;;;;;;;7.50;3.05;;;;;;;14.27;79.17;101891.72;5283026;28;20035;-71
2022/09/19 09:34:07;;;;;;;14.45;3.35;;;;;;;14.40;78.12;101887.44;5284817;28;20025;-72
2022/09/19 09:36:48;;;;;;;13.23;2.58;;;;;;;14.47;78.79;101891.56;5284806;28;20494;-69
2022/09/19 09:39:28;;;;;;;9.68;3.33;;;;;;;14.52;77.10;101896.25;5284661;28;20077;-73
2022/09/19 09:42:03;;;;;;;10.32;2.50;;;;;;;14.54;77.44;101885.66;5286034;28;20024;-72
2022/09/19 09:44:54;;;;;;;8.85;2.50;;;;;;;14.67;76.86;101896.16;5285119;28;20019;-72
2022/09/19 09:47:52;;;;;;;11.68;2.97;;;;;;;14.64;76.23;101901.50;5284738;28;20369;-72
2022/09/19 09:50:32;;;;;;;6.97;1.98;;;;;;;14.67;73.16;101890.59;5281880;28;20219;-72
2022/09/19 09:53:29;;;;;;;3.45;1.65;;;;;;;14.65;71.96;101898.44;5264780;28;20028;-70
2022/09/19 09:56:27;;;;;;;5.60;1.85;;;;;;;14.77;72.65;101901.66;5284307;28;20023;-72
2022/09/19 09:59:10;;;;;;;6.32;3.15;;;;;;;14.88;72.67;101896.00;5280994;28;20039;-71
2022/09/19 10:04:56;;;;;;;9.13;2.40;;;;;;;14.92;70.76;101889.53;5265295;28;20033;-70
2022/09/19 10:07:48;;;;;;;9.05;2.70;;;;;;;14.98;71.29;101887.50;5265101;28;20028;-71
2022/09/19 10:10:21;;;;;;;7.50;2.28;;;;;;;14.84;71.53;101892.97;5265124;28;20036;-71
2022/09/19 10:13:04;;;;;;;6.88;3.25;;;;;;;14.76;71.88;101894.44;5267132;28;20097;-73
2022/09/19 10:15:39;;;;;;;7.93;2.53;;;;;;;14.74;70.20;101904.22;5288551;28;20028;-71
2022/09/19 10:18:15;;;;;;;6.57;2.00;;;;;;;14.74;69.90;101896.66;5272855;28;20048;-70
2022/09/19 10:20:51;;;;;;;5.97;2.45;;;;;;;14.77;69.99;101907.25;5269409;28;20048;-70
2022/09/19 10:23:25;;;;;;;5.28;1.70;;;;;;;14.82;68.18;101900.78;5268226;28;20040;-70
2022/09/19 10:26:04;;;;;;;9.02;1.73;;;;;;;14.84;68.02;101903.31;5266054;28;20021;-71
2022/09/19 10:28:45;;;;;;;6.07;1.63;;;;;;;14.88;69.21;101904.38;5266421;28;20456;-70
2022/09/19 10:31:25;;;;;;;5.63;2.05;;;;;;;14.93;69.24;101904.31;5248074;28;20085;-71
2022/09/19 10:34:04;;;;;;;5.60;1.63;;;;;;;14.95;69.59;101896.50;5246021;28;20059;-71
2022/09/19 10:36:44;;;;;;;7.38;2.00;;;;;;;15.03;68.67;101895.84;5263541;28;20044;-70
2022/09/19 10:39:17;;;;;;;6.72;2.13;;;;;;;15.11;69.51;101902.75;5258294;28;20025;-71
2022/09/19 10:41:49;;;;;;;7.45;2.38;;;;;;;15.03;69.86;101909.81;5262951;28;20051;-71
2022/09/19 10:44:23;;;;;;;5.95;1.90;;;;;;;15.03;71.78;101908.97;5261525;28;20040;-70
2022/09/19 10:46:58;;;;;;;26.27;16.13;;;;;;;14.91;74.08;101913.00;5259364;28;20032;-71
2022/09/19 10:49:57;;;;;;;20.27;8.57;;;;;;;14.78;75.66;101914.53;5254320;28;20120;-70
2022/09/19 10:52:33;;;;;;;10.48;2.17;;;;;;;14.51;77.46;101902.97;5262580;28;20033;-70
2022/09/19 10:55:09;;;;;;;6.10;2.05;;;;;;;14.53;81.09;101907.19;5262045;28;20116;-70
2022/09/19 10:58:03;;;;;;;14.43;5.30;;;;;;;14.51;83.35;101903.81;5262887;28;20367;-70
2022/09/19 11:00:44;;;;;;;5.45;1.83;;;;;;;14.47;82.04;101899.09;5272014;28;20101;-68
2022/09/19 11:03:23;;;;;;;5.25;2.13;;;;;;;14.55;80.98;101895.72;5283303;28;20478;-70
2022/09/19 11:06:13;;;;;;;9.23;2.65;;;;;;;14.76;82.86;101897.22;5278401;28;20033;-70
2022/09/19 11:08:46;;;;;;;10.63;3.15;;;;;;;14.90;81.61;101897.38;5261848;28;20167;-71
2022/09/19 11:11:37;;;;;;;26.05;14.90;;;;;;;15.07;76.67;101905.31;5262617;28;20100;-71
2022/09/19 11:14:38;;;;;;;13.52;6.60;;;;;;;15.18;75.68;101906.03;5295371;28;20036;-71
2022/09/19 11:17:15;;;;;;;5.05;1.63;;;;;;;15.10;72.02;101898.31;5263065;28;20039;-72
2022/09/19 11:20:16;;;;;;;9.15;2.30;;;;;;;15.14;72.12;101900.22;5278186;28;20025;-70
2022/09/19 11:23:03;;;;;;;8.77;4.07;;;;;;;15.14;72.46;101903.00;5278681;28;20020;-71
2022/09/19 11:25:44;;;;;;;14.27;2.45;;;;;;;15.14;71.15;101900.22;5272014;28;20438;-71
2022/09/19 11:28:40;;;;;;;8.95;1.80;;;;;;;15.09;70.04;101891.88;5271028;28;20460;-71
2022/09/19 11:31:30;;;;;;;;;;;;;;;15.25;70.41;101891.72;5237384;28;20033;-71
2022/09/19 11:34:11;;;;;;;7.68;2.28;;;;;;;15.22;70.11;101893.16;5281644;28;19966;-71
2022/09/19 11:37:01;;;;;;;11.00;2.53;;;;;;;15.23;70.37;101901.22;5278974;28;20229;-71
2022/09/19 11:40:13;;;;;;;9.30;2.08;;;;;;;15.13;71.96;101894.91;5283009;28;20032;-71
2022/09/19 11:43:01;;;;;;;9.90;2.33;;;;;;;14.92;73.09;101903.50;5260106;28;20487;-71
2022/09/19 11:45:53;;;;;;;8.02;2.75;;;;;;;14.91;73.75;101901.00;5271927;28;20085;-73
2022/09/19 11:48:49;;;;;;;6.60;1.80;;;;;;;14.86;74.36;101892.69;5274988;28;20414;-70
2022/09/19 11:51:51;;;;;;;27.70;3.47;;;;;;;14.91;76.92;101895.44;5260880;28;20029;-71
2022/09/19 11:54:44;;;;;;;7.38;1.73;;;;;;;14.95;77.43;101891.72;5260824;28;20076;-71
2022/09/19 11:57:39;;;;;;;7.85;2.03;;;;;;;15.15;77.30;101896.28;5261052;28;20025;-71
2022/09/19 12:00:15;;;;;;;8.23;2.10;;;;;;;15.42;76.01;101878.94;5269701;28;20118;-71
2022/09/19 12:03:12;;;;;;;6.53;2.15;;;;;;;15.38;73.86;101891.00;5282822;28;20016;-70
2022/09/19 12:06:02;;;;;;;;;;;;;;;15.48;73.65;101882.50;5266770;28;20024;-71
2022/09/19 12:08:49;;;;;;;14.27;3.05;;;;;;;15.48;70.00;101888.09;5282921;28;19917;-71
2022/09/19 12:11:26;;;;;;;6.00;1.52;;;;;;;15.56;67.25;101883.81;5281267;28;20024;-71
2022/09/19 12:14:02;;;;;;;3.90;1.77;;;;;;;15.64;69.35;101881.19;5281813;28;20021;-71
2022/09/19 12:16:46;;;;;;;5.75;1.92;;;;;;;15.63;66.05;101884.28;5282989;28;20023;-71
2022/09/19 12:19:27;;;;;;;15.13;9.05;;;;;;;15.63;64.29;101875.91;5281597;28;20486;-71
2022/09/19 12:22:06;;;;;;;7.82;2.15;;;;;;;15.70;63.32;101881.16;5279419;28;20025;-71
2022/09/19 12:24:52;;;;;;;9.75;2.30;;;;;;;15.97;65.15;101875.75;5266062;28;20439;-74
2022/09/19 12:27:23;;;;;;;;;;;;;;;16.18;61.98;101879.13;5262320;28;20411;-71
2022/09/19 12:30:05;;;;;;;4.65;1.90;;;;;;;16.27;60.64;101868.06;5265087;28;19930;-72
2022/09/19 12:32:47;;;;;;;3.75;1.60;;;;;;;16.44;59.75;101882.34;5281586;28;20375;-72
2022/09/19 12:35:35;;;;;;;5.15;1.80;;;;;;;16.59;59.17;101874.81;5282112;28;20375;-71
2022/09/19 12:38:24;;;;;;;4.07;1.58;;;;;;;16.72;59.25;101869.28;5282265;28;20165;-70
2022/09/19 12:41:07;;;;;;;8.02;1.60;;;;;;;16.88;58.35;101869.84;5281216;28;20036;-70
2022/09/19 12:44:18;;;;;;;6.80;1.77;;;;;;;16.91;58.16;101860.84;5281972;28;20430;-70
2022/09/19 12:47:04;;;;;;;12.02;3.17;;;;;;;16.97;54.51;101861.56;5282809;28;20029;-73
2022/09/19 12:49:56;;;;;;;4.43;1.50;;;;;;;16.95;57.51;101870.31;5283142;28;20120;-73
2022/09/19 12:52:35;;;;;;;7.13;2.28;;;;;;;16.93;55.01;101866.16;5285570;28;20392;-70
2022/09/19 12:55:25;;;;;;;4.93;1.45;;;;;;;17.15;55.66;101874.69;5285591;28;20063;-71
2022/09/19 12:58:05;;;;;;;4.25;1.90;;;;;;;17.31;54.63;101880.00;5285890;28;20047;-71
2022/09/19 13:00:42;;;;;;;4.03;1.58;;;;;;;17.46;54.94;101879.69;5285125;28;20080;-71
2022/09/19 13:03:27;;;;;;;5.28;1.80;;;;;;;17.68;54.93;101881.75;5285858;28;20025;-73
2022/09/19 13:06:08;;;;;;;4.28;1.30;;;;;;;17.61;52.87;101872.91;5286061;28;20476;-70
2022/09/19 13:08:48;;;;;;;6.05;1.92;;;;;;;17.64;54.28;101880.75;5283774;28;20028;-68
2022/09/19 13:11:36;;;;;;;8.90;5.60;;;;;;;17.63;53.57;101884.66;5285490;28;20024;-68
2022/09/19 13:14:17;;;;;;;9.82;2.65;;;;;;;17.80;54.47;101884.91;5284523;28;20032;-71
2022/09/19 13:25:38;;;;;;;4.82;1.30;;;;;;;17.43;51.23;101885.91;5280938;28;20067;-71
2022/09/19 13:28:19;;;;;;;9.02;1.95;;;;;;;17.16;52.92;101881.13;5284684;28;20052;-71
2022/09/19 13:31:15;;;;;;;8.10;1.98;;;;;;;17.10;53.33;101883.19;5284302;28;20036;-71
2022/09/19 13:33:53;;;;;;;6.40;2.25;;;;;;;17.35;53.45;101879.06;5285318;28;20028;-71
2022/09/19 13:36:24;;;;;;;4.30;1.30;;;;;;;17.57;53.45;101875.53;5284516;28;20028;-71
2022/09/19 13:38:58;;;;;;;5.15;1.90;;;;;;;17.39;49.82;101871.69;5285282;28;20127;-71
2022/09/19 13:41:47;;;;;;;7.70;1.80;;;;;;;17.75;50.50;101876.56;5284927;28;20040;-72
2022/09/19 13:45:01;;;;;;;7.80;1.77;;;;;;;17.84;48.48;101887.06;5284615;28;20530;-71
2022/09/19 13:47:40;;;;;;;6.93;1.77;;;;;;;17.69;48.42;101882.56;5277670;28;20037;-71
2022/09/19 13:50:53;;;;;;;5.22;2.13;;;;;;;17.78;49.68;101887.16;5283968;28;20017;-71
2022/09/19 13:53:38;;;;;;;5.60;1.83;;;;;;;17.78;49.01;101878.72;5283925;28;20092;-70
2022/09/19 13:56:32;;;;;;;4.53;1.85;;;;;;;17.94;49.55;101882.06;5284070;28;20023;-70
2022/09/19 13:59:26;;;;;;;5.03;1.73;;;;;;;17.97;49.05;101877.78;5284246;28;20024;-71
2022/09/19 14:02:03;;;;;;;6.35;1.50;;;;;;;18.01;48.17;101876.03;5284708;28;20046;-70
2022/09/19 14:04:57;;;;;;;4.88;1.48;;;;;;;17.86;45.90;101881.97;5269663;28;20024;-71
2022/09/19 14:07:44;;;;;;;4.57;1.40;;;;;;;18.01;45.55;101876.03;5284730;28;20033;-71
2022/09/19 14:10:19;;;;;;;3.17;1.40;;;;;;;18.04;45.37;101869.78;5282520;28;20024;-71
2022/09/19 14:12:59;;;;;;;7.00;2.30;;;;;;;18.00;45.77;101871.56;5287417;28;20028;-71
2022/09/19 14:15:48;;;;;;;5.82;1.83;;;;;;;17.92;46.97;101877.91;5305444;28;20028;-71
2022/09/19 14:18:36;;;;;;;5.30;2.45;;;;;;;17.85;47.07;101871.91;5296981;28;20078;-71
2022/09/19 14:21:10;;;;;;;4.93;1.33;;;;;;;17.67;46.22;101870.88;5282249;28;20525;-71
2022/09/19 14:23:47;;;;;;;9.48;1.75;;;;;;;17.36;44.42;101880.72;5282902;28;20064;-68
2022/09/19 14:26:19;;;;;;;171.57;19.55;;;;;;;17.67;46.01;101882.91;5267317;28;20029;-71
2022/09/19 14:29:26;;;;;;;5.70;1.75;;;;;;;17.65;51.50;101896.41;5263398;28;20043;-70
2022/09/19 14:32:21;;;;;;;7.38;1.85;;;;;;;17.43;53.82;101901.91;5274781;28;20063;-72
2022/09/19 14:35:35;;;;;;;19.85;3.42;;;;;;;17.17;55.60;101899.59;5277402;28;20029;-70
2022/09/19 14:38:34;;;;;;;4.00;1.50;;;;;;;16.90;57.51;101891.97;5268285;28;20064;-69
2022/09/19 14:41:17;;;;;;;24.20;3.65;;;;;;;16.73;57.64;101906.50;5262858;28;20061;-70
2022/09/19 14:44:06;;;;;;;5.38;1.60;;;;;;;16.46;57.43;101902.47;5277589;28;20029;-69
2022/09/19 14:46:42;;;;;;;5.13;1.80;;;;;;;16.48;58.49;101904.94;5267747;28;20025;-69
2022/09/19 14:49:19;;;;;;;;;;;;;;;16.53;57.57;101897.28;5263221;28;20028;-69
2022/09/19 14:52:01;;;;;;;5.40;1.95;;;;;;;16.37;57.76;101898.69;5263189;28;19912;-69
2022/09/19 14:54:44;;;;;;;4.57;1.35;;;;;;;16.45;57.83;101908.38;5276484;28;20082;-70
2022/09/19 14:57:20;;;;;;;3.78;1.02;;;;;;;16.44;55.94;101899.13;5283596;28;20048;-69
2022/09/19 15:00:12;;;;;;;11.15;2.25;;;;;;;16.52;56.38;101906.03;5282474;28;20049;-70
2022/09/19 15:02:44;;;;;;;5.50;2.00;;;;;;;16.61;56.55;101904.16;5281217;28;20700;-69
2022/09/19 15:05:27;;;;;;;25.02;4.90;;;;;;;16.72;57.21;101896.47;5282514;28;20071;-70
2022/09/19 15:08:25;;;;;;;4.18;2.00;;;;;;;16.83;57.26;101895.16;5268969;28;20082;-69
2022/09/19 15:11:00;;;;;;;4.65;1.60;;;;;;;16.99;58.49;101900.50;5271651;28;20024;-70
2022/09/19 15:13:33;;;;;;;3.20;1.30;;;;;;;16.85;58.19;101892.06;5282475;28;20383;-72
2022/09/19 15:16:09;;;;;;;5.70;2.20;;;;;;;16.82;59.58;101896.31;5282677;28;20033;-70
2022/09/19 15:18:50;;;;;;;3.38;1.75;;;;;;;16.72;60.11;101896.47;5283730;28;20023;-70
2022/09/19 15:21:25;;;;;;;5.70;1.40;;;;;;;16.60;60.39;101898.91;5282382;28;20425;-70
2022/09/19 15:23:59;;;;;;;5.03;1.38;;;;;;;16.39;61.06;101902.03;5283098;28;20074;-69
2022/09/19 15:26:41;;;;;;;5.43;1.20;;;;;;;16.44;61.88;101904.75;5283145;28;20488;-71
2022/09/19 15:29:39;;;;;;;2.42;1.70;;;;;;;16.43;61.77;101900.25;5281900;28;20028;-71
2022/09/19 15:32:25;;;;;;;5.07;1.52;;;;;;;16.32;62.19;101906.34;5262362;28;20496;-71
2022/09/19 15:34:57;;;;;;;3.33;1.48;;;;;;;16.32;62.57;101904.38;5261811;28;20033;-70
2022/09/19 15:37:33;;;;;;;11.65;1.70;;;;;;;16.18;61.25;101907.09;5262242;28;20420;-71
2022/09/19 15:40:06;;;;;;;8.73;1.23;;;;;;;16.07;62.00;101903.59;5261586;28;20047;-70
2022/09/19 15:42:42;;;;;;;4.13;1.17;;;;;;;16.16;62.78;101914.13;5261459;28;20029;-71
2022/09/19 15:45:43;;;;;;;4.30;1.40;;;;;;;16.20;62.94;101909.56;5270231;28;20017;-71
2022/09/19 15:48:23;;;;;;;3.10;1.17;;;;;;;16.06;63.45;101915.09;5272261;28;20045;-71
2022/09/19 15:50:59;;;;;;;4.72;1.20;;;;;;;16.09;65.08;101915.31;5281864;28;20324;-71
2022/09/19 15:53:38;;;;;;;3.00;1.20;;;;;;;15.97;64.62;101923.31;5283768;28;20107;-71
2022/09/19 15:56:11;;;;;;;4.00;1.10;;;;;;;16.07;65.43;101917.56;5280710;28;20100;-71
2022/09/19 15:58:46;;;;;;;50.67;5.72;;;;;;;16.05;65.46;101922.66;5281767;28;20161;-71
2022/09/19 16:01:21;;;;;;;7.13;2.60;;;;;;;15.85;65.66;101925.72;5265884;28;20087;-70
2022/09/19 16:04:08;;;;;;;8.23;2.38;;;;;;;15.92;66.81;101919.75;5260932;28;20029;-70
2022/09/19 16:09:42;;;;;;;5.18;1.35;;;;;;;16.01;66.98;101927.19;5258142;28;20037;-69
2022/09/19 16:12:43;;;;;;;3.80;1.20;;;;;;;15.91;66.55;101926.50;5260714;28;20044;-70
2022/09/19 16:15:14;;;;;;;2.63;1.38;;;;;;;15.89;67.17;101934.34;5259775;28;20094;-69
2022/09/19 16:17:52;;;;;;;5.72;1.42;;;;;;;15.69;65.71;101922.28;5255365;28;20026;-69
2022/09/19 16:20:29;;;;;;;6.68;1.60;;;;;;;15.72;66.64;101932.03;5253387;28;20061;-71
2022/09/19 16:23:04;;;;;;;4.70;1.67;;;;;;;15.55;68.58;101932.50;5245232;28;20026;-70
2022/09/19 16:25:58;;;;;;;7.22;1.88;;;;;;;15.42;69.75;101928.44;5262569;28;20033;-71
2022/09/19 16:28:33;;;;;;;5.45;1.27;;;;;;;15.42;71.14;101939.63;5265023;28;20040;-70
2022/09/19 16:31:16;;;;;;;3.28;1.23;;;;;;;15.39;71.02;101926.22;5264833;28;20029;-70
2022/09/19 16:34:45;;;;;;;5.38;1.40;;;;;;;15.50;70.62;101924.16;5265709;28;20029;-69
2022/09/19 16:37:33;;;;;;;5.45;1.50;;;;;;;15.35;70.88;101933.53;5159238;28;20133;-70
2022/09/19 16:40:25;;;;;;;3.72;1.48;;;;;;;15.36;70.60;101944.41;5250606;28;20061;-73
2022/09/19 16:42:58;;;;;;;4.47;1.20;;;;;;;15.28;71.59;101938.63;5264543;28;20081;-68
2022/09/19 16:45:41;;;;;;;6.35;1.70;;;;;;;15.33;71.70;101936.63;5250470;28;20043;-68
2022/09/19 16:48:12;;;;;;;3.28;1.20;;;;;;;15.30;71.12;101930.81;5254977;28;20456;-67
2022/09/19 16:50:43;;;;;;;7.55;2.60;;;;;;;15.16;70.99;101930.63;5265469;28;20021;-67
2022/09/19 16:53:15;;;;;;;4.63;1.50;;;;;;;15.24;71.43;101938.41;5263612;28;20025;-68
2022/09/19 16:55:50;;;;;;;4.05;1.33;;;;;;;15.29;71.57;101941.16;5265180;28;20021;-67
2022/09/19 16:58:22;;;;;;;7.13;1.73;;;;;;;15.29;71.54;101945.88;5265079;28;20049;-67
2022/09/19 17:00:53;;;;;;;5.43;2.00;;;;;;;15.32;71.54;101950.91;5263995;28;20084;-67
2022/09/19 17:03:24;;;;;;;1.40;1.05;;;;;;;15.13;71.55;101959.19;5265140;28;20029;-68
2022/09/19 17:05:57;;;;;;;13.85;10.40;;;;;;;15.09;72.07;101964.53;5264819;28;20024;-67
2022/09/19 17:08:28;;;;;;;4.63;1.10;;;;;;;15.03;71.58;101962.88;5263980;28;20024;-67
2022/09/19 17:11:02;;;;;;;13.52;12.23;;;;;;;15.04;74.60;101956.19;5264221;28;20557;-67
2022/09/19 17:13:34;;;;;;;3.92;1.45;;;;;;;15.00;75.38;101960.69;5263975;28;20049;-68
2022/09/19 17:16:06;;;;;;;3.85;1.58;;;;;;;14.94;75.63;101951.53;5265029;28;20162;-68
2022/09/19 17:18:39;;;;;;;4.10;2.20;;;;;;;14.93;75.80;101961.03;5263862;28;20025;-67
2022/09/19 17:21:13;;;;;;;4.55;2.45;;;;;;;14.93;76.52;101962.97;5263649;28;20032;-67
2022/09/19 17:23:45;;;;;;;5.53;2.47;;;;;;;14.75;77.27;101964.50;5264426;28;20551;-67
2022/09/19 17:26:16;;;;;;;3.33;1.30;;;;;;;14.68;77.29;101964.88;5262343;28;20258;-67
2022/09/19 17:28:47;;;;;;;2.90;1.27;;;;;;;14.67;77.50;101974.34;5263718;28;20105;-67
2022/09/19 17:31:21;;;;;;;3.80;1.20;;;;;;;14.77;78.88;101968.69;5264040;28;20490;-67
